Terminal Aerodrome Forecast
Issued by NWS Wichita, KS

Home | Current Version | Previous Version | Graphics & Text | Print | Product List | Glossary On
Versions: 1 2 3 4 5 6 7 8 9 10 11 12 13 14 15 16 17 18
000
FTUS43 KICT 271135
TAFICT
TAF
KICT 271135Z 2712/2812 VRB04KT P6SM SKC
     FM271300 15007KT P6SM SCT130 BKN250
     FM271900 14012KT P6SM OVC100
     FM280000 10013KT P6SM VCSH OVC035
     FM280200 12010G20KT P6SM -SHRA VCTS OVC030CB
     FM280600 12008KT P6SM BKN020
     FM280900 13006KT P6SM BKN008=

USA.gov is the U.S. government's official web portal to all federal, state and local government web resources and services.